sensor_id;sensor_type;location;lat;lon;timestamp;P1;durP1;ratioP1;P2;durP2;ratioP2
51602;SDS011;37954;51.980;5.850;2023-12-22T00:00:30;4.77;;;1.70;;
51602;SDS011;37954;51.980;5.850;2023-12-22T00:04:42;6.97;;;2.17;;
51602;SDS011;37954;51.980;5.850;2023-12-22T00:08:54;6.30;;;1.77;;
51602;SDS011;37954;51.980;5.850;2023-12-22T00:13:05;7.97;;;2.33;;
51602;SDS011;37954;51.980;5.850;2023-12-22T00:17:17;8.10;;;1.90;;
51602;SDS011;37954;51.980;5.850;2023-12-22T00:21:29;8.47;;;2.23;;
51602;SDS011;37954;51.980;5.850;2023-12-22T00:25:40;7.40;;;1.80;;
51602;SDS011;37954;51.980;5.850;2023-12-22T00:29:52;8.63;;;1.63;;
51602;SDS011;37954;51.980;5.850;2023-12-22T00:34:04;5.97;;;2.00;;
51602;SDS011;37954;51.980;5.850;2023-12-22T00:38:16;4.40;;;1.70;;
51602;SDS011;37954;51.980;5.850;2023-12-22T00:42:27;3.73;;;1.33;;
51602;SDS011;37954;51.980;5.850;2023-12-22T00:46:39;4.33;;;1.30;;
51602;SDS011;37954;51.980;5.850;2023-12-22T00:50:51;5.70;;;1.40;;
51602;SDS011;37954;51.980;5.850;2023-12-22T00:55:02;5.17;;;1.27;;
51602;SDS011;37954;51.980;5.850;2023-12-22T00:59:14;3.13;;;1.20;;
51602;SDS011;37954;51.980;5.850;2023-12-22T01:03:26;2.07;;;0.97;;
51602;SDS011;37954;51.980;5.850;2023-12-22T01:07:38;3.50;;;1.33;;
51602;SDS011;37954;51.980;5.850;2023-12-22T01:11:49;4.40;;;1.07;;
51602;SDS011;37954;51.980;5.850;2023-12-22T01:16:01;4.10;;;1.13;;
51602;SDS011;37954;51.980;5.850;2023-12-22T01:20:13;3.23;;;0.83;;
51602;SDS011;37954;51.980;5.850;2023-12-22T01:24:24;4.20;;;1.10;;
51602;SDS011;37954;51.980;5.850;2023-12-22T01:28:36;5.27;;;1.17;;
51602;SDS011;37954;51.980;5.850;2023-12-22T01:32:48;5.27;;;1.40;;
51602;SDS011;37954;51.980;5.850;2023-12-22T01:37:00;2.67;;;1.40;;
51602;SDS011;37954;51.980;5.850;2023-12-22T01:41:11;7.07;;;1.40;;
51602;SDS011;37954;51.980;5.850;2023-12-22T01:45:23;3.53;;;1.40;;
51602;SDS011;37954;51.980;5.850;2023-12-22T01:49:34;6.07;;;1.77;;
51602;SDS011;37954;51.980;5.850;2023-12-22T01:53:46;3.33;;;1.10;;
51602;SDS011;37954;51.980;5.850;2023-12-22T01:57:58;4.73;;;1.20;;
51602;SDS011;37954;51.980;5.850;2023-12-22T02:02:10;3.57;;;1.57;;
51602;SDS011;37954;51.980;5.850;2023-12-22T02:06:22;7.23;;;1.67;;
51602;SDS011;37954;51.980;5.850;2023-12-22T02:10:34;5.50;;;1.83;;
51602;SDS011;37954;51.980;5.850;2023-12-22T02:14:47;5.90;;;1.70;;
51602;SDS011;37954;51.980;5.850;2023-12-22T02:19:00;8.27;;;1.50;;
51602;SDS011;37954;51.980;5.850;2023-12-22T02:23:20;6.33;;;1.73;;
51602;SDS011;37954;51.980;5.850;2023-12-22T02:27:40;5.33;;;1.70;;
51602;SDS011;37954;51.980;5.850;2023-12-22T02:31:59;10.23;;;2.00;;
51602;SDS011;37954;51.980;5.850;2023-12-22T02:36:17;11.10;;;1.93;;
51602;SDS011;37954;51.980;5.850;2023-12-22T02:40:29;6.77;;;1.73;;
51602;SDS011;37954;51.980;5.850;2023-12-22T02:44:42;10.87;;;1.83;;
51602;SDS011;37954;51.980;5.850;2023-12-22T02:48:54;9.67;;;1.90;;
51602;SDS011;37954;51.980;5.850;2023-12-22T02:53:05;11.80;;;2.20;;
51602;SDS011;37954;51.980;5.850;2023-12-22T02:57:17;8.57;;;1.97;;
51602;SDS011;37954;51.980;5.850;2023-12-22T03:01:29;7.07;;;1.87;;
51602;SDS011;37954;51.980;5.850;2023-12-22T03:05:40;8.43;;;2.70;;
51602;SDS011;37954;51.980;5.850;2023-12-22T03:09:52;9.37;;;2.37;;
51602;SDS011;37954;51.980;5.850;2023-12-22T03:14:04;13.07;;;2.67;;
51602;SDS011;37954;51.980;5.850;2023-12-22T03:18:15;8.67;;;2.20;;
51602;SDS011;37954;51.980;5.850;2023-12-22T03:22:27;11.57;;;2.53;;
51602;SDS011;37954;51.980;5.850;2023-12-22T03:26:39;10.43;;;2.37;;
51602;SDS011;37954;51.980;5.850;2023-12-22T03:30:51;9.00;;;2.40;;
51602;SDS011;37954;51.980;5.850;2023-12-22T03:35:03;6.77;;;1.83;;
51602;SDS011;37954;51.980;5.850;2023-12-22T03:39:15;6.20;;;1.73;;
51602;SDS011;37954;51.980;5.850;2023-12-22T03:43:27;5.40;;;1.60;;
51602;SDS011;37954;51.980;5.850;2023-12-22T03:47:39;2.97;;;1.13;;
51602;SDS011;37954;51.980;5.850;2023-12-22T03:51:51;3.97;;;1.27;;
51602;SDS011;37954;51.980;5.850;2023-12-22T03:56:03;4.27;;;1.77;;
51602;SDS011;37954;51.980;5.850;2023-12-22T04:00:15;3.60;;;1.40;;
51602;SDS011;37954;51.980;5.850;2023-12-22T04:04:27;4.83;;;1.43;;
51602;SDS011;37954;51.980;5.850;2023-12-22T04:08:39;4.10;;;1.10;;
51602;SDS011;37954;51.980;5.850;2023-12-22T04:12:51;6.63;;;1.70;;
51602;SDS011;37954;51.980;5.850;2023-12-22T04:17:03;4.00;;;1.20;;
51602;SDS011;37954;51.980;5.850;2023-12-22T04:21:15;4.13;;;1.00;;
51602;SDS011;37954;51.980;5.850;2023-12-22T04:25:26;9.23;;;2.33;;
51602;SDS011;37954;51.980;5.850;2023-12-22T04:29:38;4.47;;;2.23;;
51602;SDS011;37954;51.980;5.850;2023-12-22T04:33:49;4.63;;;1.70;;
51602;SDS011;37954;51.980;5.850;2023-12-22T04:38:01;2.13;;;1.00;;
51602;SDS011;37954;51.980;5.850;2023-12-22T04:42:13;4.13;;;1.70;;
51602;SDS011;37954;51.980;5.850;2023-12-22T04:46:25;6.10;;;1.70;;
51602;SDS011;37954;51.980;5.850;2023-12-22T04:50:37;10.47;;;2.47;;
51602;SDS011;37954;51.980;5.850;2023-12-22T04:54:48;4.43;;;1.90;;
51602;SDS011;37954;51.980;5.850;2023-12-22T04:59:00;9.53;;;1.90;;
51602;SDS011;37954;51.980;5.850;2023-12-22T05:03:12;9.07;;;1.50;;
51602;SDS011;37954;51.980;5.850;2023-12-22T05:07:24;7.90;;;2.13;;
51602;SDS011;37954;51.980;5.850;2023-12-22T05:11:35;10.40;;;2.07;;
51602;SDS011;37954;51.980;5.850;2023-12-22T05:15:47;7.70;;;2.13;;
51602;SDS011;37954;51.980;5.850;2023-12-22T05:19:59;10.67;;;2.70;;
51602;SDS011;37954;51.980;5.850;2023-12-22T05:24:11;6.63;;;2.03;;
51602;SDS011;37954;51.980;5.850;2023-12-22T05:28:23;9.03;;;2.07;;
51602;SDS011;37954;51.980;5.850;2023-12-22T05:32:34;8.83;;;2.00;;
51602;SDS011;37954;51.980;5.850;2023-12-22T05:36:46;7.53;;;1.90;;
51602;SDS011;37954;51.980;5.850;2023-12-22T05:40:58;9.27;;;1.77;;
51602;SDS011;37954;51.980;5.850;2023-12-22T05:45:10;4.33;;;1.80;;
51602;SDS011;37954;51.980;5.850;2023-12-22T05:49:22;11.90;;;2.57;;
51602;SDS011;37954;51.980;5.850;2023-12-22T05:53:35;8.67;;;2.77;;
51602;SDS011;37954;51.980;5.850;2023-12-22T05:57:46;16.40;;;5.57;;
51602;SDS011;37954;51.980;5.850;2023-12-22T06:01:58;10.17;;;2.50;;
51602;SDS011;37954;51.980;5.850;2023-12-22T06:06:10;13.93;;;2.93;;
51602;SDS011;37954;51.980;5.850;2023-12-22T06:10:22;13.00;;;2.60;;
51602;SDS011;37954;51.980;5.850;2023-12-22T06:14:34;9.27;;;2.97;;
51602;SDS011;37954;51.980;5.850;2023-12-22T06:18:46;15.00;;;3.13;;
51602;SDS011;37954;51.980;5.850;2023-12-22T06:22:58;14.60;;;2.70;;
51602;SDS011;37954;51.980;5.850;2023-12-22T06:27:09;10.13;;;2.23;;
51602;SDS011;37954;51.980;5.850;2023-12-22T06:31:21;13.60;;;2.60;;
51602;SDS011;37954;51.980;5.850;2023-12-22T06:35:33;7.93;;;2.30;;
51602;SDS011;37954;51.980;5.850;2023-12-22T06:39:45;7.90;;;2.40;;
51602;SDS011;37954;51.980;5.850;2023-12-22T06:43:57;9.77;;;2.43;;
51602;SDS011;37954;51.980;5.850;2023-12-22T06:48:13;8.67;;;2.70;;
51602;SDS011;37954;51.980;5.850;2023-12-22T06:52:25;10.23;;;2.43;;
51602;SDS011;37954;51.980;5.850;2023-12-22T06:56:36;12.10;;;2.80;;
51602;SDS011;37954;51.980;5.850;2023-12-22T07:00:48;6.30;;;2.27;;
51602;SDS011;37954;51.980;5.850;2023-12-22T07:13:29;10.60;;;2.93;;
51602;SDS011;37954;51.980;5.850;2023-12-22T07:17:41;13.73;;;3.00;;
51602;SDS011;37954;51.980;5.850;2023-12-22T07:21:54;8.13;;;2.63;;
51602;SDS011;37954;51.980;5.850;2023-12-22T07:26:05;13.03;;;3.50;;
51602;SDS011;37954;51.980;5.850;2023-12-22T07:30:23;11.03;;;3.40;;
51602;SDS011;37954;51.980;5.850;2023-12-22T07:34:34;12.90;;;3.20;;
51602;SDS011;37954;51.980;5.850;2023-12-22T07:38:49;12.60;;;3.37;;
51602;SDS011;37954;51.980;5.850;2023-12-22T07:43:00;13.13;;;3.67;;
51602;SDS011;37954;51.980;5.850;2023-12-22T07:47:12;13.97;;;4.17;;
51602;SDS011;37954;51.980;5.850;2023-12-22T07:51:25;13.93;;;3.50;;
51602;SDS011;37954;51.980;5.850;2023-12-22T07:55:37;19.03;;;4.23;;
51602;SDS011;37954;51.980;5.850;2023-12-22T07:59:50;12.20;;;3.70;;
51602;SDS011;37954;51.980;5.850;2023-12-22T08:04:01;20.33;;;4.03;;
51602;SDS011;37954;51.980;5.850;2023-12-22T08:08:13;17.70;;;4.40;;
51602;SDS011;37954;51.980;5.850;2023-12-22T08:12:25;22.50;;;4.67;;
51602;SDS011;37954;51.980;5.850;2023-12-22T08:16:37;14.70;;;3.30;;
51602;SDS011;37954;51.980;5.850;2023-12-22T08:20:49;15.63;;;2.77;;
51602;SDS011;37954;51.980;5.850;2023-12-22T08:25:02;12.03;;;3.07;;
51602;SDS011;37954;51.980;5.850;2023-12-22T08:29:14;12.67;;;3.07;;
51602;SDS011;37954;51.980;5.850;2023-12-22T08:33:27;12.17;;;4.70;;
51602;SDS011;37954;51.980;5.850;2023-12-22T08:37:39;13.10;;;3.50;;
51602;SDS011;37954;51.980;5.850;2023-12-22T08:41:51;12.33;;;3.20;;
51602;SDS011;37954;51.980;5.850;2023-12-22T08:46:02;17.00;;;3.97;;
51602;SDS011;37954;51.980;5.850;2023-12-22T08:55:39;14.40;;;3.10;;
51602;SDS011;37954;51.980;5.850;2023-12-22T08:59:51;19.40;;;3.53;;
51602;SDS011;37954;51.980;5.850;2023-12-22T09:04:02;12.73;;;2.77;;
51602;SDS011;37954;51.980;5.850;2023-12-22T09:08:15;12.30;;;3.00;;
51602;SDS011;37954;51.980;5.850;2023-12-22T09:12:26;14.07;;;3.47;;
51602;SDS011;37954;51.980;5.850;2023-12-22T09:16:38;9.67;;;2.80;;
51602;SDS011;37954;51.980;5.850;2023-12-22T09:20:50;7.10;;;1.90;;
51602;SDS011;37954;51.980;5.850;2023-12-22T09:25:02;9.95;;;2.22;;
51602;SDS011;37954;51.980;5.850;2023-12-22T09:29:14;6.93;;;2.10;;
51602;SDS011;37954;51.980;5.850;2023-12-22T09:33:26;7.15;;;2.25;;
51602;SDS011;37954;51.980;5.850;2023-12-22T09:37:38;9.75;;;2.30;;
51602;SDS011;37954;51.980;5.850;2023-12-22T09:41:50;8.90;;;2.42;;
51602;SDS011;37954;51.980;5.850;2023-12-22T09:46:02;4.72;;;2.20;;
51602;SDS011;37954;51.980;5.850;2023-12-22T09:50:15;5.57;;;2.03;;
51602;SDS011;37954;51.980;5.850;2023-12-22T09:54:27;2.28;;;1.10;;
51602;SDS011;37954;51.980;5.850;2023-12-22T09:58:39;1.52;;;0.82;;
51602;SDS011;37954;51.980;5.850;2023-12-22T10:02:52;2.05;;;0.80;;
51602;SDS011;37954;51.980;5.850;2023-12-22T10:07:04;1.92;;;1.38;;
51602;SDS011;37954;51.980;5.850;2023-12-22T10:11:17;2.80;;;0.80;;
51602;SDS011;37954;51.980;5.850;2023-12-22T10:15:28;3.45;;;0.70;;
51602;SDS011;37954;51.980;5.850;2023-12-22T10:19:42;2.33;;;0.80;;
51602;SDS011;37954;51.980;5.850;2023-12-22T10:23:53;4.45;;;1.13;;
51602;SDS011;37954;51.980;5.850;2023-12-22T10:28:05;6.18;;;1.27;;
51602;SDS011;37954;51.980;5.850;2023-12-22T10:32:22;2.72;;;1.55;;
51602;SDS011;37954;51.980;5.850;2023-12-22T10:36:34;3.38;;;1.55;;
51602;SDS011;37954;51.980;5.850;2023-12-22T10:40:46;5.10;;;1.52;;
51602;SDS011;37954;51.980;5.850;2023-12-22T10:45:03;5.97;;;1.60;;
51602;SDS011;37954;51.980;5.850;2023-12-22T10:49:15;6.00;;;1.65;;
51602;SDS011;37954;51.980;5.850;2023-12-22T10:53:27;2.72;;;1.40;;
51602;SDS011;37954;51.980;5.850;2023-12-22T10:57:39;7.35;;;1.88;;
51602;SDS011;37954;51.980;5.850;2023-12-22T11:01:51;5.50;;;1.70;;
51602;SDS011;37954;51.980;5.850;2023-12-22T11:06:05;9.48;;;4.45;;
51602;SDS011;37954;51.980;5.850;2023-12-22T11:10:21;4.57;;;1.77;;
51602;SDS011;37954;51.980;5.850;2023-12-22T11:14:33;3.55;;;1.50;;
51602;SDS011;37954;51.980;5.850;2023-12-22T11:18:46;4.43;;;1.98;;
51602;SDS011;37954;51.980;5.850;2023-12-22T11:23:01;8.55;;;1.98;;
51602;SDS011;37954;51.980;5.850;2023-12-22T11:27:20;6.13;;;1.77;;
51602;SDS011;37954;51.980;5.850;2023-12-22T11:31:32;2.55;;;1.73;;
51602;SDS011;37954;51.980;5.850;2023-12-22T11:35:44;7.20;;;2.67;;
51602;SDS011;37954;51.980;5.850;2023-12-22T11:39:57;5.03;;;1.85;;
51602;SDS011;37954;51.980;5.850;2023-12-22T11:44:09;4.93;;;1.63;;
51602;SDS011;37954;51.980;5.850;2023-12-22T11:48:21;8.10;;;1.80;;
51602;SDS011;37954;51.980;5.850;2023-12-22T11:52:34;4.57;;;1.90;;
51602;SDS011;37954;51.980;5.850;2023-12-22T11:56:46;5.65;;;1.77;;
51602;SDS011;37954;51.980;5.850;2023-12-22T12:00:58;4.82;;;1.60;;
51602;SDS011;37954;51.980;5.850;2023-12-22T12:05:13;6.57;;;1.40;;
51602;SDS011;37954;51.980;5.850;2023-12-22T12:09:44;2.88;;;1.30;;
51602;SDS011;37954;51.980;5.850;2023-12-22T12:13:57;9.43;;;2.03;;
51602;SDS011;37954;51.980;5.850;2023-12-22T12:18:23;2.45;;;1.45;;
51602;SDS011;37954;51.980;5.850;2023-12-22T12:22:35;2.33;;;1.25;;
51602;SDS011;37954;51.980;5.850;2023-12-22T12:26:50;6.28;;;1.35;;
51602;SDS011;37954;51.980;5.850;2023-12-22T12:31:03;2.65;;;1.30;;
51602;SDS011;37954;51.980;5.850;2023-12-22T12:35:19;3.42;;;1.48;;
51602;SDS011;37954;51.980;5.850;2023-12-22T12:39:31;6.03;;;2.35;;
51602;SDS011;37954;51.980;5.850;2023-12-22T12:43:46;9.48;;;5.15;;
51602;SDS011;37954;51.980;5.850;2023-12-22T12:48:02;12.60;;;3.10;;
51602;SDS011;37954;51.980;5.850;2023-12-22T12:52:18;4.13;;;1.67;;
51602;SDS011;37954;51.980;5.850;2023-12-22T12:56:36;8.05;;;2.30;;
51602;SDS011;37954;51.980;5.850;2023-12-22T13:01:04;8.43;;;2.90;;
51602;SDS011;37954;51.980;5.850;2023-12-22T13:05:21;6.50;;;1.60;;
51602;SDS011;37954;51.980;5.850;2023-12-22T13:09:36;3.70;;;1.50;;
51602;SDS011;37954;51.980;5.850;2023-12-22T13:13:47;4.03;;;1.65;;
51602;SDS011;37954;51.980;5.850;2023-12-22T13:17:59;4.03;;;1.55;;
51602;SDS011;37954;51.980;5.850;2023-12-22T13:22:11;2.97;;;1.23;;
51602;SDS011;37954;51.980;5.850;2023-12-22T13:26:23;3.10;;;1.60;;
51602;SDS011;37954;51.980;5.850;2023-12-22T13:30:38;4.65;;;1.90;;
51602;SDS011;37954;51.980;5.850;2023-12-22T13:34:55;5.78;;;1.88;;
51602;SDS011;37954;51.980;5.850;2023-12-22T13:39:08;5.53;;;1.88;;
51602;SDS011;37954;51.980;5.850;2023-12-22T13:43:27;13.70;;;1.95;;
51602;SDS011;37954;51.980;5.850;2023-12-22T13:47:43;3.05;;;1.33;;
51602;SDS011;37954;51.980;5.850;2023-12-22T13:51:58;4.70;;;1.63;;
51602;SDS011;37954;51.980;5.850;2023-12-22T13:56:10;3.80;;;1.35;;
51602;SDS011;37954;51.980;5.850;2023-12-22T14:00:24;6.50;;;1.60;;
51602;SDS011;37954;51.980;5.850;2023-12-22T14:04:36;5.43;;;1.60;;
51602;SDS011;37954;51.980;5.850;2023-12-22T14:08:47;7.47;;;1.85;;
51602;SDS011;37954;51.980;5.850;2023-12-22T14:12:59;4.22;;;1.42;;
51602;SDS011;37954;51.980;5.850;2023-12-22T14:17:11;6.95;;;1.52;;
51602;SDS011;37954;51.980;5.850;2023-12-22T14:21:22;3.97;;;1.17;;
51602;SDS011;37954;51.980;5.850;2023-12-22T14:25:34;2.97;;;1.52;;
51602;SDS011;37954;51.980;5.850;2023-12-22T14:29:46;7.25;;;1.90;;
51602;SDS011;37954;51.980;5.850;2023-12-22T14:33:58;4.00;;;1.38;;
51602;SDS011;37954;51.980;5.850;2023-12-22T14:38:10;9.68;;;1.80;;
51602;SDS011;37954;51.980;5.850;2023-12-22T14:42:22;5.13;;;1.65;;
51602;SDS011;37954;51.980;5.850;2023-12-22T14:46:37;8.18;;;2.60;;
51602;SDS011;37954;51.980;5.850;2023-12-22T14:50:51;7.72;;;2.13;;
51602;SDS011;37954;51.980;5.850;2023-12-22T14:55:02;8.63;;;2.15;;
51602;SDS011;37954;51.980;5.850;2023-12-22T14:59:15;6.57;;;1.95;;
51602;SDS011;37954;51.980;5.850;2023-12-22T15:03:28;8.50;;;2.15;;
51602;SDS011;37954;51.980;5.850;2023-12-22T15:07:39;8.25;;;2.95;;
51602;SDS011;37954;51.980;5.850;2023-12-22T15:11:51;7.43;;;2.20;;
51602;SDS011;37954;51.980;5.850;2023-12-22T15:16:06;12.55;;;3.28;;
51602;SDS011;37954;51.980;5.850;2023-12-22T15:20:18;4.85;;;2.40;;
51602;SDS011;37954;51.980;5.850;2023-12-22T15:24:30;5.70;;;1.60;;
51602;SDS011;37954;51.980;5.850;2023-12-22T15:28:41;7.15;;;1.85;;
51602;SDS011;37954;51.980;5.850;2023-12-22T15:32:53;7.70;;;2.25;;
51602;SDS011;37954;51.980;5.850;2023-12-22T15:37:05;8.77;;;2.97;;
51602;SDS011;37954;51.980;5.850;2023-12-22T15:41:17;10.48;;;2.85;;
51602;SDS011;37954;51.980;5.850;2023-12-22T15:45:28;6.57;;;2.40;;
51602;SDS011;37954;51.980;5.850;2023-12-22T15:49:40;8.25;;;2.88;;
51602;SDS011;37954;51.980;5.850;2023-12-22T15:53:52;5.45;;;2.47;;
51602;SDS011;37954;51.980;5.850;2023-12-22T15:58:04;7.85;;;2.75;;
51602;SDS011;37954;51.980;5.850;2023-12-22T16:02:15;13.90;;;4.40;;
51602;SDS011;37954;51.980;5.850;2023-12-22T16:10:50;10.23;;;4.68;;
51602;SDS011;37954;51.980;5.850;2023-12-22T16:15:02;53.45;;;21.02;;
51602;SDS011;37954;51.980;5.850;2023-12-22T16:19:14;66.43;;;19.73;;
51602;SDS011;37954;51.980;5.850;2023-12-22T16:23:26;71.78;;;26.00;;
51602;SDS011;37954;51.980;5.850;2023-12-22T16:27:37;45.53;;;19.70;;
51602;SDS011;37954;51.980;5.850;2023-12-22T16:31:49;20.58;;;7.55;;
51602;SDS011;37954;51.980;5.850;2023-12-22T16:36:01;16.13;;;6.35;;
51602;SDS011;37954;51.980;5.850;2023-12-22T16:40:13;18.88;;;8.35;;
51602;SDS011;37954;51.980;5.850;2023-12-22T16:44:25;13.55;;;4.43;;
51602;SDS011;37954;51.980;5.850;2023-12-22T16:48:37;10.27;;;4.22;;
51602;SDS011;37954;51.980;5.850;2023-12-22T16:52:49;12.32;;;3.78;;
51602;SDS011;37954;51.980;5.850;2023-12-22T16:57:02;11.05;;;4.72;;
51602;SDS011;37954;51.980;5.850;2023-12-22T17:01:14;10.65;;;2.80;;
51602;SDS011;37954;51.980;5.850;2023-12-22T17:05:46;7.50;;;2.53;;
51602;SDS011;37954;51.980;5.850;2023-12-22T17:09:58;11.40;;;2.65;;
51602;SDS011;37954;51.980;5.850;2023-12-22T17:14:10;7.88;;;2.35;;
51602;SDS011;37954;51.980;5.850;2023-12-22T17:18:25;10.60;;;2.22;;
51602;SDS011;37954;51.980;5.850;2023-12-22T17:22:37;6.15;;;2.10;;
51602;SDS011;37954;51.980;5.850;2023-12-22T17:26:49;8.07;;;2.70;;
51602;SDS011;37954;51.980;5.850;2023-12-22T17:31:01;8.77;;;2.30;;
51602;SDS011;37954;51.980;5.850;2023-12-22T17:35:17;21.52;;;11.13;;
51602;SDS011;37954;51.980;5.850;2023-12-22T17:39:28;17.85;;;6.00;;
51602;SDS011;37954;51.980;5.850;2023-12-22T17:43:40;10.02;;;3.88;;
51602;SDS011;37954;51.980;5.850;2023-12-22T17:47:52;7.18;;;3.15;;
51602;SDS011;37954;51.980;5.850;2023-12-22T17:52:04;28.95;;;13.50;;
51602;SDS011;37954;51.980;5.850;2023-12-22T17:56:16;21.77;;;11.23;;
51602;SDS011;37954;51.980;5.850;2023-12-22T18:00:29;13.88;;;7.63;;
51602;SDS011;37954;51.980;5.850;2023-12-22T18:04:41;19.70;;;10.25;;
51602;SDS011;37954;51.980;5.850;2023-12-22T18:08:53;6.18;;;3.67;;
51602;SDS011;37954;51.980;5.850;2023-12-22T18:13:05;8.13;;;2.58;;
51602;SDS011;37954;51.980;5.850;2023-12-22T18:17:17;5.30;;;1.92;;
51602;SDS011;37954;51.980;5.850;2023-12-22T18:21:30;3.88;;;1.40;;
51602;SDS011;37954;51.980;5.850;2023-12-22T18:25:41;6.10;;;1.88;;
51602;SDS011;37954;51.980;5.850;2023-12-22T18:29:53;5.28;;;1.80;;
51602;SDS011;37954;51.980;5.850;2023-12-22T18:34:05;4.90;;;1.85;;
51602;SDS011;37954;51.980;5.850;2023-12-22T18:38:17;6.28;;;2.80;;
51602;SDS011;37954;51.980;5.850;2023-12-22T18:42:29;4.25;;;2.00;;
51602;SDS011;37954;51.980;5.850;2023-12-22T18:46:40;6.82;;;2.65;;
51602;SDS011;37954;51.980;5.850;2023-12-22T18:50:52;3.33;;;1.90;;
51602;SDS011;37954;51.980;5.850;2023-12-22T18:55:04;9.02;;;4.28;;
51602;SDS011;37954;51.980;5.850;2023-12-22T18:59:16;19.67;;;9.77;;
51602;SDS011;37954;51.980;5.850;2023-12-22T19:03:28;90.50;;;43.75;;
51602;SDS011;37954;51.980;5.850;2023-12-22T19:07:40;21.08;;;9.63;;
51602;SDS011;37954;51.980;5.850;2023-12-22T19:11:52;20.48;;;9.60;;
51602;SDS011;37954;51.980;5.850;2023-12-22T19:16:04;10.00;;;5.40;;
51602;SDS011;37954;51.980;5.850;2023-12-22T19:20:17;4.47;;;2.90;;
51602;SDS011;37954;51.980;5.850;2023-12-22T19:24:29;4.38;;;1.45;;
51602;SDS011;37954;51.980;5.850;2023-12-22T19:28:42;4.32;;;1.70;;
51602;SDS011;37954;51.980;5.850;2023-12-22T19:32:53;3.10;;;1.55;;
51602;SDS011;37954;51.980;5.850;2023-12-22T19:37:05;6.60;;;1.95;;
51602;SDS011;37954;51.980;5.850;2023-12-22T19:45:53;15.25;;;8.65;;
51602;SDS011;37954;51.980;5.850;2023-12-22T19:50:06;14.93;;;7.75;;
51602;SDS011;37954;51.980;5.850;2023-12-22T19:54:18;8.90;;;4.00;;
51602;SDS011;37954;51.980;5.850;2023-12-22T19:58:30;12.75;;;2.67;;
51602;SDS011;37954;51.980;5.850;2023-12-22T20:02:42;4.78;;;2.03;;
51602;SDS011;37954;51.980;5.850;2023-12-22T20:06:53;5.22;;;2.35;;
51602;SDS011;37954;51.980;5.850;2023-12-22T20:11:05;4.30;;;1.90;;
51602;SDS011;37954;51.980;5.850;2023-12-22T20:15:17;9.80;;;3.85;;
51602;SDS011;37954;51.980;5.850;2023-12-22T20:19:30;10.82;;;5.15;;
51602;SDS011;37954;51.980;5.850;2023-12-22T20:23:41;27.77;;;16.92;;
51602;SDS011;37954;51.980;5.850;2023-12-22T20:27:53;6.28;;;2.90;;
51602;SDS011;37954;51.980;5.850;2023-12-22T20:32:06;6.68;;;2.40;;
51602;SDS011;37954;51.980;5.850;2023-12-22T20:36:18;5.80;;;1.73;;
51602;SDS011;37954;51.980;5.850;2023-12-22T20:40:30;6.10;;;2.15;;
51602;SDS011;37954;51.980;5.850;2023-12-22T20:44:41;6.57;;;1.80;;
51602;SDS011;37954;51.980;5.850;2023-12-22T20:48:53;7.38;;;2.60;;
51602;SDS011;37954;51.980;5.850;2023-12-22T20:53:05;6.73;;;2.20;;
51602;SDS011;37954;51.980;5.850;2023-12-22T20:57:16;7.65;;;2.00;;
51602;SDS011;37954;51.980;5.850;2023-12-22T21:01:28;4.80;;;2.23;;
51602;SDS011;37954;51.980;5.850;2023-12-22T21:05:40;5.30;;;2.10;;
51602;SDS011;37954;51.980;5.850;2023-12-22T21:09:51;5.80;;;1.87;;
51602;SDS011;37954;51.980;5.850;2023-12-22T21:14:03;6.07;;;1.87;;
51602;SDS011;37954;51.980;5.850;2023-12-22T21:18:18;7.07;;;2.08;;
51602;SDS011;37954;51.980;5.850;2023-12-22T21:22:29;6.30;;;2.00;;
51602;SDS011;37954;51.980;5.850;2023-12-22T21:26:42;8.00;;;2.63;;
51602;SDS011;37954;51.980;5.850;2023-12-22T21:30:55;8.47;;;2.43;;
51602;SDS011;37954;51.980;5.850;2023-12-22T21:35:06;4.37;;;1.80;;
51602;SDS011;37954;51.980;5.850;2023-12-22T21:39:18;9.93;;;4.40;;
51602;SDS011;37954;51.980;5.850;2023-12-22T21:43:30;6.37;;;2.37;;
51602;SDS011;37954;51.980;5.850;2023-12-22T21:47:42;3.77;;;2.03;;
51602;SDS011;37954;51.980;5.850;2023-12-22T21:51:53;5.63;;;1.90;;
51602;SDS011;37954;51.980;5.850;2023-12-22T21:56:05;7.53;;;2.03;;
51602;SDS011;37954;51.980;5.850;2023-12-22T22:00:17;8.33;;;1.70;;
51602;SDS011;37954;51.980;5.850;2023-12-22T22:04:29;6.87;;;1.60;;
51602;SDS011;37954;51.980;5.850;2023-12-22T22:08:41;9.67;;;1.80;;
51602;SDS011;37954;51.980;5.850;2023-12-22T22:12:53;8.53;;;1.90;;
51602;SDS011;37954;51.980;5.850;2023-12-22T22:17:05;6.50;;;2.90;;
51602;SDS011;37954;51.980;5.850;2023-12-22T22:21:17;7.57;;;2.70;;
51602;SDS011;37954;51.980;5.850;2023-12-22T22:25:28;7.40;;;2.30;;
51602;SDS011;37954;51.980;5.850;2023-12-22T22:29:40;7.33;;;2.03;;
51602;SDS011;37954;51.980;5.850;2023-12-22T22:33:54;6.93;;;2.50;;
51602;SDS011;37954;51.980;5.850;2023-12-22T22:38:05;5.67;;;2.03;;
51602;SDS011;37954;51.980;5.850;2023-12-22T22:42:18;5.32;;;2.03;;
51602;SDS011;37954;51.980;5.850;2023-12-22T22:46:30;4.47;;;1.87;;
51602;SDS011;37954;51.980;5.850;2023-12-22T22:50:41;8.70;;;2.30;;
51602;SDS011;37954;51.980;5.850;2023-12-22T22:54:53;6.63;;;1.60;;
51602;SDS011;37954;51.980;5.850;2023-12-22T22:59:05;11.87;;;4.63;;
51602;SDS011;37954;51.980;5.850;2023-12-22T23:03:17;12.07;;;3.17;;
51602;SDS011;37954;51.980;5.850;2023-12-22T23:07:29;14.07;;;5.37;;
51602;SDS011;37954;51.980;5.850;2023-12-22T23:11:40;5.83;;;1.60;;
51602;SDS011;37954;51.980;5.850;2023-12-22T23:15:52;4.80;;;1.60;;
51602;SDS011;37954;51.980;5.850;2023-12-22T23:20:04;6.33;;;1.73;;
51602;SDS011;37954;51.980;5.850;2023-12-22T23:24:16;5.43;;;1.83;;
51602;SDS011;37954;51.980;5.850;2023-12-22T23:28:28;5.53;;;1.50;;
51602;SDS011;37954;51.980;5.850;2023-12-22T23:32:40;7.97;;;1.87;;
51602;SDS011;37954;51.980;5.850;2023-12-22T23:36:52;5.23;;;2.20;;
51602;SDS011;37954;51.980;5.850;2023-12-22T23:41:04;10.90;;;1.90;;
51602;SDS011;37954;51.980;5.850;2023-12-22T23:45:16;7.50;;;1.60;;
51602;SDS011;37954;51.980;5.850;2023-12-22T23:49:28;7.30;;;1.55;;
51602;SDS011;37954;51.980;5.850;2023-12-22T23:53:39;7.37;;;1.73;;
51602;SDS011;37954;51.980;5.850;2023-12-22T23:57:52;5.63;;;1.90;;
